Time;durP1;ratioP1;P1;durP2;ratioP2;P2;SDS_P1;SDS_P2;PMS_P1;PMS_P2;Temp;Humidity;BMP_temperature;BMP_pressure;BME280_temperature;BME280_humidity;BME280_pressure;Samples;Min_cycle;Max_cycle;Signal;HPM_P1;HPM_P2
2021/07/15 00:01:46;;;;;;;20.23;8.60;;;23.60;88.20;;;;;;5013710;28;20117;-67
2021/07/15 00:04:12;;;;;;;23.30;9.75;;;23.60;88.30;;;;;;5013989;28;20025;-67
2021/07/15 00:06:39;;;;;;;20.00;9.98;;;23.60;88.40;;;;;;5014871;28;20152;-67
2021/07/15 00:09:05;;;;;;;24.23;10.32;;;23.60;88.60;;;;;;5028120;28;20064;-67
2021/07/15 00:11:36;;;;;;;24.73;10.93;;;23.60;88.60;;;;;;5034782;28;20515;-67
2021/07/15 00:14:01;;;;;;;19.90;9.98;;;23.60;88.80;;;;;;5014883;28;20026;-67
2021/07/15 00:16:27;;;;;;;25.27;11.73;;;23.60;88.60;;;;;;5028616;28;20508;-67
2021/07/15 00:18:53;;;;;;;24.92;11.88;;;23.50;88.70;;;;;;5025303;28;20030;-67
2021/07/15 00:21:22;;;;;;;21.60;10.98;;;23.50;88.80;;;;;;5012771;28;20394;-67
2021/07/15 00:23:49;;;;;;;21.02;11.82;;;23.50;89.00;;;;;;5023343;28;20033;-67
2021/07/15 00:26:20;;;;;;;22.52;11.40;;;23.50;89.00;;;;;;5025568;28;20067;-67
2021/07/15 00:28:45;;;;;;;17.40;11.07;;;23.40;89.10;;;;;;5018153;28;20057;-67
2021/07/15 00:31:11;;;;;;;23.38;12.40;;;23.50;89.00;;;;;;5020253;28;20054;-68
2021/07/15 00:33:38;;;;;;;28.17;12.80;;;23.50;89.10;;;;;;5019873;28;20029;-67
2021/07/15 00:36:04;;;;;;;25.80;12.82;;;23.40;89.20;;;;;;5020027;28;20048;-67
2021/07/15 00:38:30;;;;;;;24.15;12.88;;;23.40;89.30;;;;;;5022872;28;20042;-67
2021/07/15 00:40:56;;;;;;;25.52;12.35;;;23.40;89.40;;;;;;5022638;28;20026;-67
2021/07/15 00:43:22;;;;;;;20.25;11.30;;;23.30;89.30;;;;;;5022554;28;20112;-67
2021/07/15 00:45:49;;;;;;;34.63;15.15;;;23.40;89.30;;;;;;5024391;28;20104;-67
2021/07/15 00:48:17;;;;;;;31.25;13.65;;;23.30;89.50;;;;;;5018844;28;20392;-67
2021/07/15 00:50:43;;;;;;;22.35;13.02;;;23.30;89.50;;;;;;5012724;28;20428;-67
2021/07/15 00:53:09;;;;;;;26.58;13.75;;;23.30;89.60;;;;;;5013109;28;20117;-67
2021/07/15 00:55:40;;;;;;;24.08;12.63;;;23.30;89.50;;;;;;5015490;28;20030;-67
2021/07/15 00:58:08;;;;;;;21.42;10.85;;;23.30;89.50;;;;;;5011835;28;20497;-67
2021/07/15 01:00:36;;;;;;;24.70;12.15;;;23.30;89.60;;;;;;5025364;28;20041;-67
2021/07/15 01:03:02;;;;;;;20.08;8.63;;;23.30;89.60;;;;;;5023717;28;20033;-67
2021/07/15 01:05:33;;;;;;;17.52;8.25;;;23.20;89.40;;;;;;5026209;28;20099;-67
2021/07/15 01:08:03;;;;;;;17.08;9.23;;;23.20;89.50;;;;;;5013764;28;20034;-67
2021/07/15 01:10:34;;;;;;;28.60;13.68;;;23.20;89.50;;;;;;5038112;28;20032;-67
2021/07/15 01:13:29;;;;;;;26.83;12.80;;;23.20;89.70;;;;;;5024223;28;20025;-67
2021/07/15 01:16:06;;;;;;;22.83;9.52;;;23.20;89.70;;;;;;5029894;28;20033;-67
2021/07/15 01:18:32;;;;;;;23.80;12.88;;;23.20;89.60;;;;;;5028943;28;20049;-67
2021/07/15 01:21:00;;;;;;;31.13;14.68;;;23.20;89.80;;;;;;5028117;28;20037;-67
2021/07/15 01:23:35;;;;;;;23.23;11.25;;;23.20;90.00;;;;;;5030557;28;20030;-67
2021/07/15 01:26:18;;;;;;;28.75;13.02;;;23.10;90.00;;;;;;5027243;28;20147;-67
2021/07/15 01:29:22;;;;;;;32.55;14.70;;;23.20;90.00;;;;;;5017993;28;20092;-67
2021/07/15 01:31:53;;;;;;;24.02;13.35;;;23.10;90.00;;;;;;5012062;28;20069;-67
2021/07/15 01:34:21;;;;;;;21.80;11.18;;;23.10;90.00;;;;;;5023528;28;20088;-67
2021/07/15 01:36:53;;;;;;;19.10;10.27;;;23.10;90.00;;;;;;5021086;28;20080;-67
2021/07/15 01:39:22;;;;;;;27.00;14.18;;;23.10;90.10;;;;;;5013250;28;20076;-67
2021/07/15 01:41:52;;;;;;;28.55;12.05;;;23.00;90.10;;;;;;5012967;28;20124;-67
2021/07/15 01:44:26;;;;;;;22.95;11.82;;;23.00;90.10;;;;;;5022443;28;20111;-67
2021/07/15 01:46:52;;;;;;;24.92;12.35;;;23.00;90.10;;;;;;5024481;28;20053;-67
2021/07/15 01:49:18;;;;;;;30.13;13.15;;;23.00;90.10;;;;;;5012848;28;20113;-67
2021/07/15 01:51:45;;;;;;;23.70;12.20;;;23.00;90.20;;;;;;5023786;28;20125;-67
2021/07/15 01:54:12;;;;;;;27.50;13.45;;;23.00;90.20;;;;;;5027503;28;20080;-67
2021/07/15 01:56:40;;;;;;;28.90;12.48;;;23.00;90.20;;;;;;5016085;28;20056;-67
2021/07/15 01:59:12;;;;;;;19.35;9.65;;;23.00;90.20;;;;;;5020326;28;20385;-67
2021/07/15 02:01:39;;;;;;;21.38;10.57;;;23.00;90.20;;;;;;5016927;28;20453;-67
2021/07/15 02:04:06;;;;;;;22.55;11.07;;;23.00;90.20;;;;;;5016950;28;20500;-67
2021/07/15 02:06:33;;;;;;;24.30;10.90;;;23.00;90.30;;;;;;5026694;28;20033;-67
2021/07/15 02:09:00;;;;;;;27.17;11.88;;;22.90;90.20;;;;;;5042064;28;20369;-67
2021/07/15 02:11:32;;;;;;;27.27;11.73;;;23.00;90.30;;;;;;5041322;28;20033;-67
2021/07/15 02:14:10;;;;;;;25.08;10.48;;;22.90;90.30;;;;;;5013702;28;20040;-67
2021/07/15 02:16:38;;;;;;;27.25;11.52;;;22.90;90.30;;;;;;5013873;28;20073;-67
2021/07/15 02:19:05;;;;;;;26.58;12.45;;;22.90;90.30;;;;;;5016127;28;20045;-67
2021/07/15 02:21:33;;;;;;;25.63;10.40;;;22.90;90.40;;;;;;5024150;28;20037;-67
2021/07/15 02:24:04;;;;;;;19.10;10.02;;;22.90;90.40;;;;;;5021248;28;20474;-67
2021/07/15 02:26:31;;;;;;;21.95;9.15;;;22.90;90.40;;;;;;5035014;28;20167;-67
2021/07/15 02:28:58;;;;;;;20.05;9.75;;;22.90;90.40;;;;;;5032716;28;20035;-67
2021/07/15 02:31:36;;;;;;;29.98;9.23;;;22.90;90.40;;;;;;5015626;28;20476;-67
2021/07/15 02:34:06;;;;;;;24.95;9.82;;;22.90;90.40;;;;;;5017520;28;20038;-67
2021/07/15 02:36:33;;;;;;;26.70;9.48;;;22.90;90.40;;;;;;5021333;28;20021;-67
2021/07/15 02:39:01;;;;;;;25.42;9.18;;;22.80;90.30;;;;;;5022889;28;20121;-67
2021/07/15 02:41:27;;;;;;;14.75;7.75;;;22.90;90.30;;;;;;5043076;28;20065;-67
2021/07/15 02:43:53;;;;;;;22.60;9.93;;;22.90;90.40;;;;;;5023841;28;20038;-67
2021/07/15 02:46:19;;;;;;;24.73;7.35;;;22.90;90.40;;;;;;5021523;28;20055;-67
2021/07/15 02:48:45;;;;;;;22.20;9.07;;;22.80;90.30;;;;;;5034015;28;20091;-67
2021/07/15 02:51:10;;;;;;;21.40;9.68;;;22.80;90.30;;;;;;5020106;28;20034;-67
2021/07/15 02:53:36;;;;;;;20.40;8.02;;;22.80;90.40;;;;;;5027868;28;20022;-67
2021/07/15 02:56:23;;;;;;;26.33;8.23;;;22.80;90.40;;;;;;5014887;28;20056;-67
2021/07/15 02:59:01;;;;;;;17.52;5.57;;;22.80;90.40;;;;;;5015094;28;20040;-67
2021/07/15 03:01:33;;;;;;;30.02;8.35;;;22.80;90.30;;;;;;5015348;28;20057;-67
2021/07/15 03:04:32;;;;;;;18.17;6.38;;;22.80;90.40;;;;;;5014816;28;20597;-67
2021/07/15 03:07:01;;;;;;;12.98;5.22;;;22.80;90.30;;;;;;5014536;28;20046;-67
2021/07/15 03:09:30;;;;;;;21.85;7.80;;;22.70;90.30;;;;;;5015548;28;20046;-67
2021/07/15 03:12:11;;;;;;;17.27;5.57;;;22.70;90.30;;;;;;5015550;28;20034;-67
2021/07/15 03:14:39;;;;;;;23.35;8.23;;;22.70;90.30;;;;;;5037211;28;20025;-67
2021/07/15 03:17:11;;;;;;;17.00;6.53;;;22.70;90.40;;;;;;5021105;28;20060;-67
2021/07/15 03:19:40;;;;;;;18.25;7.82;;;22.70;90.40;;;;;;5034925;28;20033;-67
2021/07/15 03:22:07;;;;;;;17.65;7.22;;;22.70;90.40;;;;;;5034123;28;20029;-67
2021/07/15 03:24:39;;;;;;;15.27;6.18;;;22.60;90.40;;;;;;5024887;28;20088;-67
2021/07/15 03:27:06;;;;;;;22.63;5.82;;;22.70;90.40;;;;;;5015388;28;20077;-67
2021/07/15 03:29:37;;;;;;;18.85;6.25;;;22.70;90.30;;;;;;5025673;28;20065;-67
2021/07/15 03:32:05;;;;;;;16.45;6.20;;;22.70;90.40;;;;;;5011922;28;20034;-67
2021/07/15 03:34:36;;;;;;;20.20;6.40;;;22.70;90.30;;;;;;5034168;28;20032;-67
2021/07/15 03:37:03;;;;;;;16.88;7.13;;;22.70;90.30;;;;;;5034571;28;20477;-67
2021/07/15 03:39:30;;;;;;;30.50;8.95;;;22.70;90.30;;;;;;5019424;28;20021;-67
2021/07/15 03:41:56;;;;;;;21.17;8.00;;;22.60;90.30;;;;;;5023811;28;20505;-67
2021/07/15 03:44:23;;;;;;;30.08;9.35;;;22.60;90.30;;;;;;5017375;28;20048;-67
2021/07/15 03:46:49;;;;;;;18.92;7.97;;;22.60;90.30;;;;;;5017076;28;20037;-67
2021/07/15 03:49:22;;;;;;;16.20;7.68;;;22.70;90.40;;;;;;5030712;28;20473;-67
2021/07/15 03:51:50;;;;;;;23.50;8.40;;;22.60;90.30;;;;;;5022999;28;20029;-67
2021/07/15 03:54:19;;;;;;;24.48;8.50;;;22.60;90.30;;;;;;5025124;28;20049;-67
2021/07/15 03:56:46;;;;;;;22.30;6.88;;;22.60;90.30;;;;;;5031146;28;20036;-67
2021/07/15 03:59:12;;;;;;;20.92;7.18;;;22.60;90.40;;;;;;5021863;28;20075;-67
2021/07/15 04:01:38;;;;;;;20.05;7.20;;;22.60;90.40;;;;;;5027067;28;20025;-67
2021/07/15 04:04:06;;;;;;;31.92;8.90;;;22.60;90.40;;;;;;5014145;28;20034;-67
2021/07/15 04:06:34;;;;;;;22.67;7.88;;;22.60;90.70;;;;;;5023416;28;20057;-67
2021/07/15 04:09:03;;;;;;;23.90;9.27;;;22.50;90.40;;;;;;5019106;28;20034;-67
2021/07/15 04:11:30;;;;;;;14.93;8.15;;;22.50;90.40;;;;;;5015887;28;20061;-67
2021/07/15 04:13:56;;;;;;;20.08;8.93;;;22.50;90.40;;;;;;5027447;28;20381;-67
2021/07/15 04:16:26;;;;;;;21.15;8.90;;;22.40;90.40;;;;;;5022110;28;20092;-67
2021/07/15 04:18:56;;;;;;;19.48;9.18;;;22.50;90.50;;;;;;5024155;28;20033;-67
2021/07/15 04:21:24;;;;;;;17.73;7.13;;;22.50;90.50;;;;;;5029830;28;20025;-67
2021/07/15 04:23:52;;;;;;;22.23;7.13;;;22.40;90.40;;;;;;5027033;28;20057;-67
2021/07/15 04:26:18;;;;;;;20.45;8.23;;;22.40;90.40;;;;;;5019872;28;20057;-67
2021/07/15 04:28:45;;;;;;;28.33;8.00;;;22.40;90.40;;;;;;5016954;28;20525;-67
2021/07/15 04:31:42;;;;;;;26.73;8.85;;;22.50;90.40;;;;;;5013204;28;20034;-67
2021/07/15 04:34:10;;;;;;;27.70;8.07;;;22.50;90.50;;;;;;5022585;28;20081;-68
2021/07/15 04:36:36;;;;;;;27.42;9.18;;;22.40;90.40;;;;;;5013492;28;20397;-67
2021/07/15 04:39:02;;;;;;;21.48;9.10;;;22.40;90.40;;;;;;5023334;28;20017;-67
2021/07/15 04:41:29;;;;;;;18.05;8.95;;;22.40;90.50;;;;;;5024364;28;20060;-67
2021/07/15 04:43:57;;;;;;;25.08;9.52;;;22.40;90.60;;;;;;5018703;28;20436;-67
2021/07/15 04:46:23;;;;;;;18.70;7.90;;;22.40;90.50;;;;;;5016132;28;20501;-67
2021/07/15 04:48:49;;;;;;;16.45;7.82;;;22.40;90.50;;;;;;5013125;28;20034;-67
2021/07/15 04:51:16;;;;;;;18.98;8.52;;;22.40;90.50;;;;;;5013779;28;20037;-67
2021/07/15 04:53:44;;;;;;;27.50;7.65;;;22.40;90.50;;;;;;5012860;28;20025;-71
2021/07/15 04:56:11;;;;;;;23.13;7.97;;;22.40;90.50;;;;;;5010312;28;20018;-68
2021/07/15 04:58:37;;;;;;;27.08;8.52;;;22.40;90.50;;;;;;5019060;28;20072;-67
2021/07/15 05:01:04;;;;;;;16.75;8.40;;;22.40;90.60;;;;;;5019510;28;20544;-67
2021/07/15 05:03:35;;;;;;;22.52;8.10;;;22.30;90.50;;;;;;5013445;28;20040;-67
2021/07/15 05:06:02;;;;;;;17.83;7.35;;;22.30;90.60;;;;;;5013499;28;20531;-67
2021/07/15 05:08:29;;;;;;;18.60;8.38;;;22.30;90.60;;;;;;5017678;28;20125;-67
2021/07/15 05:10:55;;;;;;;21.55;7.75;;;22.30;90.70;;;;;;5011944;28;20518;-67
2021/07/15 05:13:21;;;;;;;25.65;10.23;;;22.30;90.70;;;;;;5013747;28;20022;-67
2021/07/15 05:15:48;;;;;;;31.52;11.25;;;22.30;90.70;;;;;;5020617;28;20389;-67
2021/07/15 05:18:14;;;;;;;27.08;10.15;;;22.30;90.80;;;;;;5011275;28;20046;-67
2021/07/15 05:20:39;;;;;;;27.48;8.13;;;22.30;90.80;;;;;;5013762;28;20436;-67
2021/07/15 05:23:05;;;;;;;17.42;5.88;;;22.30;90.80;;;;;;5023785;28;20120;-68
2021/07/15 05:25:31;;;;;;;16.92;7.28;;;22.30;90.80;;;;;;5027978;28;20026;-67
2021/07/15 05:27:57;;;;;;;20.85;6.82;;;22.20;90.70;;;;;;5019940;28;20442;-67
2021/07/15 05:30:22;;;;;;;25.55;7.53;;;22.20;90.70;;;;;;5015045;28;20029;-67
2021/07/15 05:32:48;;;;;;;23.08;7.28;;;22.20;90.80;;;;;;5021380;28;20030;-67
2021/07/15 05:35:14;;;;;;;22.48;8.40;;;22.20;90.80;;;;;;5022694;28;20452;-67
2021/07/15 05:37:40;;;;;;;26.92;8.07;;;22.20;90.90;;;;;;5014851;28;20029;-67
2021/07/15 05:40:07;;;;;;;22.25;8.07;;;22.20;90.80;;;;;;5023407;28;20063;-67
2021/07/15 05:42:33;;;;;;;20.42;7.47;;;22.20;90.90;;;;;;5014193;28;20068;-67
2021/07/15 05:44:59;;;;;;;18.85;7.95;;;22.20;90.80;;;;;;5020806;28;20052;-67
2021/07/15 05:47:25;;;;;;;18.13;6.60;;;22.20;90.80;;;;;;5021420;28;20046;-67
2021/07/15 05:49:50;;;;;;;23.83;8.63;;;22.10;90.80;;;;;;5022988;28;20068;-67
2021/07/15 05:52:16;;;;;;;19.77;5.78;;;22.10;90.80;;;;;;5015998;28;20092;-67
2021/07/15 05:54:42;;;;;;;24.73;7.85;;;22.10;90.80;;;;;;5018751;28;20152;-67
2021/07/15 05:57:11;;;;;;;27.95;8.82;;;22.10;90.80;;;;;;5020654;28;20109;-68
2021/07/15 05:59:37;;;;;;;27.13;10.07;;;22.10;90.80;;;;;;5015253;28;20030;-67
2021/07/15 06:02:03;;;;;;;20.10;6.50;;;22.10;90.90;;;;;;5024629;28;20055;-69
2021/07/15 06:04:29;;;;;;;23.63;7.82;;;22.00;90.90;;;;;;5015722;28;20026;-71
2021/07/15 06:06:55;;;;;;;20.05;6.93;;;22.00;90.90;;;;;;5017908;28;20393;-71
2021/07/15 06:09:21;;;;;;;24.77;7.07;;;22.10;90.90;;;;;;5017937;28;20033;-72
2021/07/15 06:11:46;;;;;;;27.38;7.38;;;22.00;90.90;;;;;;5023321;28;20036;-71
2021/07/15 06:14:12;;;;;;;18.30;7.70;;;22.00;90.80;;;;;;5020276;28;20036;-71
2021/07/15 06:16:38;;;;;;;23.70;9.15;;;22.00;90.90;;;;;;5018687;28;20047;-69
2021/07/15 06:19:04;;;;;;;21.02;6.22;;;22.00;91.00;;;;;;5023308;28;20084;-68
2021/07/15 06:21:30;;;;;;;14.73;5.50;;;22.00;91.00;;;;;;5025224;28;20465;-68
2021/07/15 06:23:56;;;;;;;22.05;5.90;;;22.00;91.00;;;;;;5023752;28;20037;-67
2021/07/15 06:26:21;;;;;;;22.73;6.72;;;22.00;90.90;;;;;;5027824;28;20033;-67
2021/07/15 06:28:47;;;;;;;13.95;5.97;;;21.90;90.90;;;;;;5027921;28;20034;-67
2021/07/15 06:31:13;;;;;;;17.23;5.97;;;22.00;90.90;;;;;;5020357;28;20018;-68
2021/07/15 06:33:38;;;;;;;18.75;5.13;;;21.90;90.90;;;;;;5025732;28;20049;-67
2021/07/15 06:36:08;;;;;;;19.95;5.95;;;21.90;90.90;;;;;;5027927;28;20037;-68
2021/07/15 06:38:36;;;;;;;27.15;7.10;;;21.90;91.00;;;;;;5028285;28;20079;-67
2021/07/15 06:41:05;;;;;;;19.27;6.15;;;21.90;91.00;;;;;;5022625;28;20124;-70
2021/07/15 06:43:31;;;;;;;24.30;7.50;;;21.90;91.00;;;;;;5023385;28;20080;-69
2021/07/15 06:45:59;;;;;;;17.50;6.40;;;21.90;91.10;;;;;;5015381;28;20397;-67
2021/07/15 06:48:25;;;;;;;27.90;5.18;;;21.80;91.10;;;;;;5014392;28;20053;-66
2021/07/15 06:50:51;;;;;;;24.23;4.70;;;21.90;91.10;;;;;;5016915;28;20028;-66
2021/07/15 06:53:17;;;;;;;19.27;5.93;;;21.90;91.20;;;;;;5021107;28;20037;-67
2021/07/15 06:55:43;;;;;;;23.42;6.20;;;21.80;91.10;;;;;;5014044;28;20053;-66
2021/07/15 06:58:09;;;;;;;18.85;5.05;;;21.80;91.10;;;;;;5016784;28;21126;-66
2021/07/15 07:00:35;;;;;;;20.92;5.45;;;21.80;91.00;;;;;;5018913;28;20040;-66
2021/07/15 07:03:01;;;;;;;20.98;5.25;;;21.80;91.10;;;;;;5019740;28;20033;-67
2021/07/15 07:05:27;;;;;;;19.40;5.20;;;21.80;91.10;;;;;;5016516;28;20030;-66
2021/07/15 07:07:52;;;;;;;16.33;5.00;;;21.80;91.20;;;;;;5019694;28;20045;-66
2021/07/15 07:10:18;;;;;;;15.35;4.55;;;21.80;91.20;;;;;;5015013;28;20677;-66
2021/07/15 07:12:45;;;;;;;20.83;6.50;;;21.80;91.20;;;;;;5005065;28;20034;-66
2021/07/15 07:15:13;;;;;;;27.77;5.80;;;21.70;91.20;;;;;;5039513;28;20118;-66
2021/07/15 07:17:39;;;;;;;21.50;5.95;;;21.70;91.30;;;;;;5020166;28;20050;-66
2021/07/15 07:20:06;;;;;;;17.85;5.93;;;21.70;91.30;;;;;;5027052;28;20105;-66
2021/07/15 07:22:32;;;;;;;26.33;5.47;;;21.70;91.30;;;;;;5022614;28;20513;-66
2021/07/15 07:24:58;;;;;;;21.90;6.28;;;21.70;91.30;;;;;;5018077;28;20117;-66
2021/07/15 07:27:24;;;;;;;29.17;5.88;;;21.70;91.30;;;;;;5014287;28;20046;-66
2021/07/15 07:29:49;;;;;;;24.45;6.03;;;21.70;91.20;;;;;;5024096;28;20025;-66
2021/07/15 07:32:15;;;;;;;18.15;6.00;;;21.70;91.30;;;;;;5014543;28;20034;-67
2021/07/15 07:34:41;;;;;;;26.17;6.70;;;21.70;91.20;;;;;;5018972;28;20022;-67
2021/07/15 07:37:06;;;;;;;21.90;6.18;;;21.70;91.30;;;;;;5016337;28;20496;-66
2021/07/15 07:39:32;;;;;;;25.25;5.57;;;21.70;91.40;;;;;;5012368;28;20018;-66
2021/07/15 07:41:58;;;;;;;21.05;5.00;;;21.70;91.40;;;;;;5016496;28;20029;-66
2021/07/15 07:44:23;;;;;;;19.13;4.72;;;21.70;91.30;;;;;;5018994;28;20527;-67
2021/07/15 07:46:49;;;;;;;22.67;6.00;;;21.70;91.40;;;;;;5017865;28;20042;-66
2021/07/15 07:49:15;;;;;;;20.23;5.95;;;21.70;91.50;;;;;;5022084;28;20033;-66
2021/07/15 07:51:41;;;;;;;19.85;6.07;;;21.70;91.60;;;;;;5022597;28;20033;-66
2021/07/15 07:54:06;;;;;;;23.65;6.35;;;21.70;91.60;;;;;;5019320;28;20034;-67
2021/07/15 07:56:32;;;;;;;17.20;4.43;;;21.70;91.50;;;;;;5022106;28;20026;-66
2021/07/15 07:59:00;;;;;;;26.17;4.50;;;21.70;91.30;;;;;;5019966;28;20438;-73
2021/07/15 08:01:27;;;;;;;7.93;2.85;;;21.70;91.20;;;;;;5012867;28;20098;-71
2021/07/15 08:03:54;;;;;;;22.10;6.25;;;21.70;90.90;;;;;;5019553;28;20108;-67
2021/07/15 08:06:19;;;;;;;23.58;5.63;;;21.70;91.10;;;;;;5012891;28;20117;-67
2021/07/15 08:08:45;;;;;;;22.05;6.20;;;21.60;91.20;;;;;;5013167;28;20137;-67
2021/07/15 08:11:11;;;;;;;20.45;6.25;;;21.60;91.30;;;;;;5022512;28;20112;-67
2021/07/15 08:13:36;;;;;;;26.77;6.82;;;21.60;91.20;;;;;;5024787;28;20034;-67
2021/07/15 08:16:03;;;;;;;21.40;6.70;;;21.60;91.30;;;;;;5034990;28;20026;-66
2021/07/15 08:18:35;;;;;;;16.85;5.80;;;21.60;91.40;;;;;;5012291;28;20048;-67
2021/07/15 08:21:00;;;;;;;20.88;5.57;;;21.60;91.40;;;;;;5013380;28;20449;-67
2021/07/15 08:23:26;;;;;;;29.58;7.45;;;21.60;91.40;;;;;;5013120;28;20057;-67
2021/07/15 08:25:52;;;;;;;31.05;7.38;;;21.60;91.40;;;;;;5018981;28;20119;-67
2021/07/15 08:28:17;;;;;;;14.63;5.05;;;21.60;91.40;;;;;;5020815;28;20074;-67
2021/07/15 08:30:43;;;;;;;20.77;6.13;;;21.60;91.30;;;;;;5029853;28;20036;-67
2021/07/15 08:33:14;;;;;;;12.60;5.38;;;21.60;91.30;;;;;;5032826;28;20041;-67
2021/07/15 08:35:40;;;;;;;16.05;6.40;;;21.60;91.30;;;;;;5017156;28;20038;-67
2021/07/15 08:38:06;;;;;;;14.95;5.38;;;21.60;91.20;;;;;;5031247;28;20033;-67
2021/07/15 08:40:32;;;;;;;19.83;6.28;;;21.60;91.20;;;;;;5031008;28;20029;-67
2021/07/15 08:42:58;;;;;;;24.70;6.10;;;21.60;91.20;;;;;;5026542;28;20580;-67
2021/07/15 08:45:24;;;;;;;27.40;6.28;;;21.50;91.20;;;;;;5011601;28;20049;-67
2021/07/15 08:47:53;;;;;;;17.38;5.63;;;21.60;91.30;;;;;;5025157;28;20056;-67
2021/07/15 08:50:19;;;;;;;17.70;5.85;;;21.60;91.30;;;;;;5028559;28;20029;-67
2021/07/15 08:52:45;;;;;;;14.68;5.75;;;21.50;91.30;;;;;;5025739;28;20393;-67
2021/07/15 08:57:39;;;;;;;17.83;6.30;;;21.50;91.60;;;;;;5027469;28;20064;-67
2021/07/15 09:00:14;;;;;;;19.50;5.47;;;21.50;91.30;;;;;;5026576;28;20029;-67
2021/07/15 09:02:40;;;;;;;18.05;5.78;;;21.50;91.40;;;;;;5026740;28;20037;-67
2021/07/15 09:05:07;;;;;;;21.35;6.00;;;21.50;91.50;;;;;;5014345;28;20650;-67
2021/07/15 09:07:33;;;;;;;19.75;4.90;;;21.50;91.40;;;;;;5019822;28;20085;-67
2021/07/15 09:09:58;;;;;;;14.18;5.05;;;21.50;91.30;;;;;;5020385;28;20057;-67
2021/07/15 09:12:24;;;;;;;16.48;6.05;;;21.50;91.40;;;;;;5025099;28;20437;-67
2021/07/15 09:14:54;;;;;;;28.15;6.32;;;21.40;91.50;;;;;;5030904;28;20135;-67
2021/07/15 09:17:35;;;;;;;16.90;5.57;;;21.40;91.60;;;;;;5019509;28;20046;-69
2021/07/15 09:20:05;;;;;;;20.55;5.78;;;21.40;91.50;;;;;;5023345;28;20045;-71
2021/07/15 09:22:31;;;;;;;18.88;5.00;;;21.50;91.40;;;;;;5012243;28;20425;-68
2021/07/15 09:24:59;;;;;;;21.58;6.85;;;21.40;91.40;;;;;;5015248;28;20545;-67
2021/07/15 09:27:27;;;;;;;18.98;5.80;;;21.40;91.40;;;;;;5014842;28;20452;-67
2021/07/15 09:30:13;;;;;;;13.75;4.05;;;21.40;91.40;;;;;;5014765;28;20025;-71
2021/07/15 09:32:52;;;;;;;16.02;4.88;;;21.40;91.30;;;;;;5024215;28;20056;-67
2021/07/15 09:35:34;;;;;;;6.57;2.80;;;21.40;91.20;;;;;;5012354;28;20481;-67
2021/07/15 09:38:10;;;;;;;14.27;4.22;;;21.40;91.20;;;;;;5011811;28;20474;-67
2021/07/15 09:40:43;;;;;;;15.52;4.28;;;21.40;91.20;;;;;;5014570;28;20500;-67
2021/07/15 09:43:16;;;;;;;12.85;4.40;;;21.40;91.20;;;;;;5010921;28;20454;-67
2021/07/15 09:45:43;;;;;;;12.90;4.05;;;21.40;91.20;;;;;;5013216;28;20037;-67
2021/07/15 09:48:16;;;;;;;14.55;4.60;;;21.40;91.20;;;;;;5017320;28;20037;-67
2021/07/15 09:50:42;;;;;;;13.85;4.75;;;21.40;91.30;;;;;;5012226;28;20092;-67
2021/07/15 09:53:18;;;;;;;17.38;4.80;;;21.30;91.20;;;;;;5014410;28;20025;-67
2021/07/15 09:55:45;;;;;;;22.83;5.43;;;21.40;91.30;;;;;;5011961;28;20022;-67
2021/07/15 09:58:13;;;;;;;21.42;5.43;;;21.40;91.30;;;;;;5022951;28;20041;-67
2021/07/15 10:00:44;;;;;;;15.25;5.72;;;21.40;91.40;;;;;;5023105;28;20025;-67
2021/07/15 10:03:13;;;;;;;9.77;4.35;;;21.40;91.30;;;;;;5018540;28;20042;-67
2021/07/15 10:05:52;;;;;;;18.10;6.60;;;21.40;91.30;;;;;;5010637;28;20022;-67
2021/07/15 10:08:27;;;;;;;15.35;4.47;;;21.40;91.30;;;;;;5017414;28;20045;-67
2021/07/15 10:11:12;;;;;;;22.48;5.70;;;21.40;91.10;;;;;;5011712;28;20152;-67
2021/07/15 10:13:38;;;;;;;20.23;5.60;;;21.40;91.10;;;;;;5024025;28;20030;-67
2021/07/15 10:16:06;;;;;;;18.30;5.93;;;21.40;91.00;;;;;;5018961;28;20029;-66
2021/07/15 10:18:35;;;;;;;17.15;5.65;;;21.30;91.10;;;;;;5012446;28;20029;-69
2021/07/15 10:21:01;;;;;;;19.80;6.05;;;21.30;91.20;;;;;;5012698;28;20473;-68
2021/07/15 10:23:32;;;;;;;19.58;4.95;;;21.40;91.30;;;;;;5016870;28;20083;-68
2021/07/15 10:26:00;;;;;;;15.40;5.28;;;21.40;91.20;;;;;;5013625;28;20080;-68
2021/07/15 10:28:27;;;;;;;26.10;5.32;;;21.40;91.20;;;;;;5014503;28;20049;-69
2021/07/15 10:30:57;;;;;;;14.70;4.35;;;21.40;91.30;;;;;;5016820;28;20350;-67
2021/07/15 10:33:23;;;;;;;13.55;4.57;;;21.40;91.10;;;;;;5010900;28;20168;-67
2021/07/15 10:35:49;;;;;;;18.23;5.45;;;21.40;91.20;;;;;;5012438;28;20104;-69
2021/07/15 10:38:15;;;;;;;18.58;5.60;;;21.40;91.20;;;;;;5015899;28;20433;-69
2021/07/15 10:40:40;;;;;;;20.27;5.88;;;21.50;91.20;;;;;;5016299;28;20057;-69
2021/07/15 10:43:07;;;;;;;18.70;5.43;;;21.40;91.20;;;;;;5020621;28;20034;-70
2021/07/15 10:45:36;;;;;;;17.63;5.35;;;21.50;91.30;;;;;;5014154;28;20501;-70
2021/07/15 10:48:03;;;;;;;17.27;5.53;;;21.50;91.20;;;;;;5016603;28;20370;-70
2021/07/15 10:50:29;;;;;;;26.58;6.30;;;21.60;91.10;;;;;;5014593;28;20237;-70
2021/07/15 10:52:58;;;;;;;16.60;4.95;;;21.50;91.00;;;;;;5015195;28;20470;-70
2021/07/15 10:55:25;;;;;;;17.45;5.10;;;21.60;91.10;;;;;;5021397;28;20115;-70
2021/07/15 10:57:51;;;;;;;25.70;6.85;;;21.60;91.10;;;;;;5013920;28;20045;-70
2021/07/15 11:00:21;;;;;;;13.55;5.30;;;21.60;91.10;;;;;;5018897;28;20025;-70
2021/07/15 11:02:47;;;;;;;15.15;5.28;;;21.60;91.10;;;;;;5014710;28;20036;-70
2021/07/15 11:05:28;;;;;;;17.98;5.65;;;21.60;91.10;;;;;;5014786;28;20385;-70
2021/07/15 11:07:54;;;;;;;12.55;5.07;;;21.60;91.20;;;;;;5019915;28;20587;-69
2021/07/15 11:10:23;;;;;;;13.20;4.15;;;21.60;91.00;;;;;;5019132;28;20025;-69
2021/07/15 11:12:55;;;;;;;25.05;6.03;;;21.60;91.00;;;;;;5013130;28;20394;-70
2021/07/15 11:15:20;;;;;;;14.88;5.13;;;21.70;91.30;;;;;;5020274;28;20026;-70
2021/07/15 11:17:50;;;;;;;21.35;6.40;;;21.70;90.90;;;;;;5016801;28;20060;-70
2021/07/15 11:20:30;;;;;;;16.70;5.68;;;21.60;90.90;;;;;;5017492;28;20036;-70
2021/07/15 11:23:00;;;;;;;18.55;5.32;;;21.70;90.90;;;;;;5018517;28;20481;-70
2021/07/15 11:25:31;;;;;;;19.95;5.50;;;21.70;90.90;;;;;;5020125;28;20393;-70
2021/07/15 11:28:18;;;;;;;16.17;4.70;;;21.70;90.80;;;;;;5023251;28;20041;-70
2021/07/15 11:30:52;;;;;;;18.38;5.05;;;21.70;90.80;;;;;;5021835;28;20034;-70
2021/07/15 11:33:21;;;;;;;20.00;6.55;;;21.70;90.70;;;;;;5020939;28;20037;-70
2021/07/15 11:35:50;;;;;;;16.70;5.05;;;21.70;90.70;;;;;;5024017;28;20052;-70
2021/07/15 11:38:23;;;;;;;20.05;6.35;;;21.70;90.80;;;;;;5020082;28;20069;-69
2021/07/15 11:41:01;;;;;;;22.48;4.43;;;21.80;90.80;;;;;;5022656;28;20029;-69
2021/07/15 11:43:31;;;;;;;18.88;5.55;;;21.80;90.80;;;;;;5017042;28;20041;-69
2021/07/15 11:46:10;;;;;;;21.08;5.68;;;21.80;90.80;;;;;;5015586;28;20026;-70
2021/07/15 11:48:50;;;;;;;13.48;4.50;;;21.80;90.70;;;;;;5013381;28;20038;-69
2021/07/15 11:51:30;;;;;;;14.00;5.20;;;21.80;90.70;;;;;;5013784;28;20033;-70
2021/07/15 11:54:14;;;;;;;15.27;3.67;;;21.80;90.70;;;;;;5021412;28;20029;-72
2021/07/15 11:56:41;;;;;;;12.48;4.03;;;21.90;90.80;;;;;;5020115;28;20025;-71
2021/07/15 11:59:07;;;;;;;20.13;5.63;;;21.90;90.80;;;;;;5026440;28;20064;-71
2021/07/15 12:01:34;;;;;;;16.52;4.60;;;21.90;90.70;;;;;;5022093;28;20076;-71
2021/07/15 12:04:08;;;;;;;13.15;4.28;;;21.90;90.70;;;;;;5014345;28;20096;-71
2021/07/15 12:06:42;;;;;;;17.60;4.90;;;21.90;90.70;;;;;;5014209;28;20485;-68
2021/07/15 12:09:10;;;;;;;13.93;4.53;;;21.90;90.60;;;;;;5015549;28;20049;-68
2021/07/15 12:11:38;;;;;;;14.20;4.55;;;21.90;90.70;;;;;;5018438;28;20034;-68
2021/07/15 12:14:04;;;;;;;17.48;5.75;;;22.00;90.70;;;;;;5023092;28;20040;-68
2021/07/15 12:16:32;;;;;;;7.47;2.90;;;22.00;90.70;;;;;;5021946;28;20048;-67
2021/07/15 12:19:03;;;;;;;12.48;4.45;;;22.00;90.70;;;;;;5022264;28;20025;-68
2021/07/15 12:21:30;;;;;;;16.77;5.32;;;22.00;90.60;;;;;;5027434;28;20029;-68
2021/07/15 12:23:58;;;;;;;26.75;6.03;;;22.00;90.60;;;;;;5015121;28;20473;-68
2021/07/15 12:26:23;;;;;;;19.33;5.95;;;22.00;90.50;;;;;;5027443;28;20036;-68
2021/07/15 12:28:49;;;;;;;11.32;3.85;;;22.10;90.30;;;;;;5015380;28;20401;-68
2021/07/15 12:31:18;;;;;;;15.38;4.88;;;22.10;90.50;;;;;;5014235;28;20438;-68
2021/07/15 12:33:49;;;;;;;17.63;4.50;;;22.10;90.40;;;;;;5012326;28;20030;-68
2021/07/15 12:36:21;;;;;;;14.13;4.85;;;22.10;90.40;;;;;;5014732;28;20042;-68
2021/07/15 12:38:52;;;;;;;18.10;5.38;;;22.10;90.30;;;;;;5011981;28;20025;-68
2021/07/15 12:41:29;;;;;;;8.23;3.55;;;22.10;90.10;;;;;;5015256;28;20032;-69
2021/07/15 12:44:19;;;;;;;16.15;4.95;;;22.10;90.20;;;;;;5012756;28;20038;-68
2021/07/15 12:46:49;;;;;;;13.35;4.43;;;22.10;90.20;;;;;;5017595;28;20037;-68